sensor_id;sensor_type;location;lat;lon;timestamp;pressure;altitude;pressure_sealevel;temperature;humidity
11523;BME280;40093;43.224;27.910;2022-10-23T00:00:55;100585.91;;;16.73;62.35
11523;BME280;40093;43.224;27.910;2022-10-23T00:03:23;100582.28;;;16.76;62.75
11523;BME280;40093;43.224;27.910;2022-10-23T00:05:50;100584.38;;;16.69;62.70
11523;BME280;40093;43.224;27.910;2022-10-23T00:08:17;100591.47;;;16.73;62.09
11523;BME280;40093;43.224;27.910;2022-10-23T00:10:44;100576.38;;;16.74;61.26
11523;BME280;40093;43.224;27.910;2022-10-23T00:13:11;100587.47;;;16.74;61.67
11523;BME280;40093;43.224;27.910;2022-10-23T00:15:37;100589.84;;;16.76;61.34
11523;BME280;40093;43.224;27.910;2022-10-23T00:18:04;100587.03;;;16.79;60.91
11523;BME280;40093;43.224;27.910;2022-10-23T00:20:33;100587.41;;;16.81;61.19
11523;BME280;40093;43.224;27.910;2022-10-23T00:22:59;100591.41;;;16.80;60.28
11523;BME280;40093;43.224;27.910;2022-10-23T00:25:26;100588.28;;;16.75;60.45
11523;BME280;40093;43.224;27.910;2022-10-23T00:27:53;100582.75;;;16.71;59.85
11523;BME280;40093;43.224;27.910;2022-10-23T00:30:20;100576.00;;;16.72;59.96
11523;BME280;40093;43.224;27.910;2022-10-23T00:32:47;100580.72;;;16.75;59.89
11523;BME280;40093;43.224;27.910;2022-10-23T00:35:14;100582.28;;;16.76;59.78
11523;BME280;40093;43.224;27.910;2022-10-23T00:37:42;100575.28;;;16.68;60.05
11523;BME280;40093;43.224;27.910;2022-10-23T00:40:10;100580.06;;;16.64;60.06
11523;BME280;40093;43.224;27.910;2022-10-23T00:42:37;100570.91;;;16.67;59.80
11523;BME280;40093;43.224;27.910;2022-10-23T00:45:23;100567.69;;;16.69;60.03
11523;BME280;40093;43.224;27.910;2022-10-23T00:47:51;100570.91;;;16.67;59.46
11523;BME280;40093;43.224;27.910;2022-10-23T00:50:20;100558.59;;;16.68;59.25
11523;BME280;40093;43.224;27.910;2022-10-23T00:52:52;100561.38;;;16.68;59.73
11523;BME280;40093;43.224;27.910;2022-10-23T00:55:21;100556.63;;;16.65;59.27
11523;BME280;40093;43.224;27.910;2022-10-23T00:57:50;100535.28;;;16.59;59.24
11523;BME280;40093;43.224;27.910;2022-10-23T01:00:19;100550.25;;;16.68;59.60
11523;BME280;40093;43.224;27.910;2022-10-23T01:02:47;100549.56;;;16.61;59.31
11523;BME280;40093;43.224;27.910;2022-10-23T01:05:14;100538.38;;;16.64;59.26
11523;BME280;40093;43.224;27.910;2022-10-23T01:07:48;100532.38;;;16.69;59.20
11523;BME280;40093;43.224;27.910;2022-10-23T01:10:22;100525.63;;;16.70;59.17
11523;BME280;40093;43.224;27.910;2022-10-23T01:12:55;100522.00;;;16.73;58.67
11523;BME280;40093;43.224;27.910;2022-10-23T01:15:28;100518.84;;;16.71;58.68
11523;BME280;40093;43.224;27.910;2022-10-23T01:18:01;100521.63;;;16.71;59.00
11523;BME280;40093;43.224;27.910;2022-10-23T01:20:39;100524.03;;;16.69;58.60
11523;BME280;40093;43.224;27.910;2022-10-23T01:23:26;100512.03;;;16.76;58.33
11523;BME280;40093;43.224;27.910;2022-10-23T01:26:17;100530.22;;;16.84;57.74
11523;BME280;40093;43.224;27.910;2022-10-23T01:28:49;100523.47;;;16.81;57.67
11523;BME280;40093;43.224;27.910;2022-10-23T01:31:23;100534.25;;;16.79;58.59
11523;BME280;40093;43.224;27.910;2022-10-23T01:33:56;100533.66;;;16.61;58.07
11523;BME280;40093;43.224;27.910;2022-10-23T01:36:27;100532.16;;;16.53;59.01
11523;BME280;40093;43.224;27.910;2022-10-23T01:38:57;100524.25;;;16.52;59.97
11523;BME280;40093;43.224;27.910;2022-10-23T01:41:28;100519.94;;;16.47;60.00
11523;BME280;40093;43.224;27.910;2022-10-23T01:44:03;100515.97;;;16.48;60.50
11523;BME280;40093;43.224;27.910;2022-10-23T01:46:33;100509.75;;;16.37;60.76
11523;BME280;40093;43.224;27.910;2022-10-23T01:49:03;100516.09;;;16.34;61.24
11523;BME280;40093;43.224;27.910;2022-10-23T01:51:32;100509.91;;;16.20;62.13
11523;BME280;40093;43.224;27.910;2022-10-23T01:54:01;100512.06;;;16.05;62.98
11523;BME280;40093;43.224;27.910;2022-10-23T01:56:32;100501.81;;;15.99;63.63
11523;BME280;40093;43.224;27.910;2022-10-23T01:59:04;100511.72;;;16.00;64.03
11523;BME280;40093;43.224;27.910;2022-10-23T02:01:35;100521.44;;;15.78;63.81
11523;BME280;40093;43.224;27.910;2022-10-23T02:04:04;100509.16;;;15.75;63.78
11523;BME280;40093;43.224;27.910;2022-10-23T02:06:34;100523.09;;;15.68;64.56
11523;BME280;40093;43.224;27.910;2022-10-23T02:09:01;100515.63;;;15.62;64.39
11523;BME280;40093;43.224;27.910;2022-10-23T02:11:30;100519.56;;;15.68;64.64
11523;BME280;40093;43.224;27.910;2022-10-23T02:14:08;100528.66;;;15.68;63.92
11523;BME280;40093;43.224;27.910;2022-10-23T02:16:41;100519.56;;;15.68;64.14
11523;BME280;40093;43.224;27.910;2022-10-23T02:19:16;100519.94;;;15.66;63.96
11523;BME280;40093;43.224;27.910;2022-10-23T02:21:50;100524.25;;;15.74;63.04
11523;BME280;40093;43.224;27.910;2022-10-23T02:24:24;100520.25;;;15.75;63.26
11523;BME280;40093;43.224;27.910;2022-10-23T02:26:55;100523.03;;;15.75;63.04
11523;BME280;40093;43.224;27.910;2022-10-23T02:29:27;100526.16;;;15.81;63.18
11523;BME280;40093;43.224;27.910;2022-10-23T02:31:56;100523.75;;;15.83;63.18
11523;BME280;40093;43.224;27.910;2022-10-23T02:34:23;100526.47;;;15.90;62.78
11523;BME280;40093;43.224;27.910;2022-10-23T02:36:50;100513.00;;;15.88;62.88
11523;BME280;40093;43.224;27.910;2022-10-23T02:39:17;100508.59;;;15.94;62.83
11523;BME280;40093;43.224;27.910;2022-10-23T02:41:46;100511.38;;;15.94;62.32
11523;BME280;40093;43.224;27.910;2022-10-23T02:44:23;100517.63;;;16.02;62.22
11523;BME280;40093;43.224;27.910;2022-10-23T02:47:01;100518.88;;;15.97;61.94
11523;BME280;40093;43.224;27.910;2022-10-23T02:49:35;100520.81;;;16.00;61.87
11523;BME280;40093;43.224;27.910;2022-10-23T02:52:08;100531.88;;;16.04;61.57
11523;BME280;40093;43.224;27.910;2022-10-23T02:55:04;100530.38;;;15.96;61.27
11523;BME280;40093;43.224;27.910;2022-10-23T02:57:35;100525.13;;;16.05;61.20
11523;BME280;40093;43.224;27.910;2022-10-23T03:00:09;100524.69;;;16.10;61.62
11523;BME280;40093;43.224;27.910;2022-10-23T03:02:40;100520.75;;;16.07;61.29
11523;BME280;40093;43.224;27.910;2022-10-23T03:05:14;100529.38;;;16.16;61.19
11523;BME280;40093;43.224;27.910;2022-10-23T03:07:42;100536.88;;;16.19;61.01
11523;BME280;40093;43.224;27.910;2022-10-23T03:10:10;100536.56;;;16.10;60.77
11523;BME280;40093;43.224;27.910;2022-10-23T03:12:37;100530.59;;;16.15;61.00
11523;BME280;40093;43.224;27.910;2022-10-23T03:15:05;100531.69;;;16.21;60.86
11523;BME280;40093;43.224;27.910;2022-10-23T03:17:32;100519.50;;;16.15;60.97
11523;BME280;40093;43.224;27.910;2022-10-23T03:20:01;100531.78;;;16.14;60.97
11523;BME280;40093;43.224;27.910;2022-10-23T03:22:27;100530.22;;;16.13;61.17
11523;BME280;40093;43.224;27.910;2022-10-23T03:24:54;100521.91;;;16.13;61.42
11523;BME280;40093;43.224;27.910;2022-10-23T03:27:21;100526.16;;;16.21;61.41
11523;BME280;40093;43.224;27.910;2022-10-23T03:29:48;100530.16;;;16.17;61.24
11523;BME280;40093;43.224;27.910;2022-10-23T03:32:15;100538.09;;;16.18;61.19
11523;BME280;40093;43.224;27.910;2022-10-23T03:34:42;100550.78;;;16.19;60.97
11523;BME280;40093;43.224;27.910;2022-10-23T03:37:10;100561.84;;;16.23;61.00
11523;BME280;40093;43.224;27.910;2022-10-23T03:39:37;100572.25;;;16.15;61.22
11523;BME280;40093;43.224;27.910;2022-10-23T03:42:04;100573.44;;;16.14;61.08
11523;BME280;40093;43.224;27.910;2022-10-23T03:44:31;100580.97;;;16.14;61.10
11523;BME280;40093;43.224;27.910;2022-10-23T03:46:58;100572.25;;;16.15;60.81
11523;BME280;40093;43.224;27.910;2022-10-23T03:49:26;100569.84;;;16.17;61.29
11523;BME280;40093;43.224;27.910;2022-10-23T03:51:53;100557.19;;;16.13;61.12
11523;BME280;40093;43.224;27.910;2022-10-23T03:54:22;100552.88;;;16.08;61.05
11523;BME280;40093;43.224;27.910;2022-10-23T03:56:50;100544.16;;;16.06;61.04
11523;BME280;40093;43.224;27.910;2022-10-23T03:59:17;100543.69;;;16.11;61.09
11523;BME280;40093;43.224;27.910;2022-10-23T04:01:44;100549.19;;;16.18;61.15
11523;BME280;40093;43.224;27.910;2022-10-23T04:04:11;100537.03;;;16.05;61.25
11523;BME280;40093;43.224;27.910;2022-10-23T04:06:38;100555.22;;;16.13;61.27
11523;BME280;40093;43.224;27.910;2022-10-23T04:09:06;100543.84;;;15.97;62.19
11523;BME280;40093;43.224;27.910;2022-10-23T04:11:35;100558.59;;;15.87;63.23
11523;BME280;40093;43.224;27.910;2022-10-23T04:14:02;100549.53;;;15.83;64.60
11523;BME280;40093;43.224;27.910;2022-10-23T04:16:29;100548.06;;;15.68;64.40
11523;BME280;40093;43.224;27.910;2022-10-23T04:18:56;100557.66;;;15.60;65.08
11523;BME280;40093;43.224;27.910;2022-10-23T04:21:23;100565.97;;;15.60;64.98
11523;BME280;40093;43.224;27.910;2022-10-23T04:23:50;100558.53;;;15.50;65.19
11523;BME280;40093;43.224;27.910;2022-10-23T04:26:17;100558.56;;;15.47;65.41
11523;BME280;40093;43.224;27.910;2022-10-23T04:28:46;100571.25;;;15.44;65.43
11523;BME280;40093;43.224;27.910;2022-10-23T04:31:12;100569.66;;;15.43;65.01
11523;BME280;40093;43.224;27.910;2022-10-23T04:33:39;100578.38;;;15.42;65.36
11523;BME280;40093;43.224;27.910;2022-10-23T04:36:07;100581.19;;;15.38;66.64
11523;BME280;40093;43.224;27.910;2022-10-23T04:38:34;100579.19;;;15.42;65.64
11523;BME280;40093;43.224;27.910;2022-10-23T04:41:01;100581.66;;;15.23;66.17
11523;BME280;40093;43.224;27.910;2022-10-23T04:43:28;100586.41;;;15.22;66.33
11523;BME280;40093;43.224;27.910;2022-10-23T04:45:56;100582.06;;;15.18;66.59
11523;BME280;40093;43.224;27.910;2022-10-23T04:48:23;100581.59;;;15.33;66.40
11523;BME280;40093;43.224;27.910;2022-10-23T04:50:54;100571.34;;;15.30;66.19
11523;BME280;40093;43.224;27.910;2022-10-23T04:53:22;100581.59;;;15.33;66.19
11523;BME280;40093;43.224;27.910;2022-10-23T04:55:49;100567.34;;;15.35;65.99
11523;BME280;40093;43.224;27.910;2022-10-23T04:58:16;100574.03;;;15.37;65.63
11523;BME280;40093;43.224;27.910;2022-10-23T05:00:43;100572.53;;;15.22;66.37
11523;BME280;40093;43.224;27.910;2022-10-23T05:03:12;100580.03;;;15.25;66.37
11523;BME280;40093;43.224;27.910;2022-10-23T05:05:39;100577.34;;;15.15;66.59
11523;BME280;40093;43.224;27.910;2022-10-23T05:08:06;100588.00;;;15.16;66.85
11523;BME280;40093;43.224;27.910;2022-10-23T05:10:33;100600.28;;;15.15;66.61
11523;BME280;40093;43.224;27.910;2022-10-23T05:13:00;100591.97;;;15.15;66.86
11523;BME280;40093;43.224;27.910;2022-10-23T05:15:27;100588.81;;;15.13;66.48
11523;BME280;40093;43.224;27.910;2022-10-23T05:17:57;100597.50;;;15.22;66.47
11523;BME280;40093;43.224;27.910;2022-10-23T05:20:29;100580.50;;;15.13;66.17
11523;BME280;40093;43.224;27.910;2022-10-23T05:22:59;100599.44;;;15.29;65.54
11523;BME280;40093;43.224;27.910;2022-10-23T05:25:26;100601.34;;;15.46;65.17
11523;BME280;40093;43.224;27.910;2022-10-23T05:27:53;100591.75;;;15.54;64.51
11523;BME280;40093;43.224;27.910;2022-10-23T05:30:20;100598.81;;;15.65;64.34
11523;BME280;40093;43.224;27.910;2022-10-23T05:32:47;100598.41;;;15.70;64.37
11523;BME280;40093;43.224;27.910;2022-10-23T05:35:17;100607.84;;;15.76;64.23
11523;BME280;40093;43.224;27.910;2022-10-23T05:37:48;100600.69;;;15.82;64.35
11523;BME280;40093;43.224;27.910;2022-10-23T05:40:16;100619.97;;;16.00;64.08
11523;BME280;40093;43.224;27.910;2022-10-23T05:42:43;100616.72;;;16.08;64.14
11523;BME280;40093;43.224;27.910;2022-10-23T05:45:10;100625.34;;;16.21;63.79
11523;BME280;40093;43.224;27.910;2022-10-23T05:47:37;100620.53;;;16.25;63.56
11523;BME280;40093;43.224;27.910;2022-10-23T05:50:06;100624.81;;;16.36;63.46
11523;BME280;40093;43.224;27.910;2022-10-23T05:52:34;100626.66;;;16.50;63.09
11523;BME280;40093;43.224;27.910;2022-10-23T05:55:02;100623.78;;;16.60;62.49
11523;BME280;40093;43.224;27.910;2022-10-23T05:57:31;100620.53;;;16.65;62.70
11523;BME280;40093;43.224;27.910;2022-10-23T05:59:58;100630.03;;;16.68;62.74
11523;BME280;40093;43.224;27.910;2022-10-23T06:02:25;100631.56;;;16.72;63.20
11523;BME280;40093;43.224;27.910;2022-10-23T06:04:52;100628.81;;;16.72;63.25
11523;BME280;40093;43.224;27.910;2022-10-23T06:07:22;100629.69;;;16.62;63.49
11523;BME280;40093;43.224;27.910;2022-10-23T06:09:49;100621.75;;;16.64;63.53
11523;BME280;40093;43.224;27.910;2022-10-23T06:12:17;100624.09;;;16.69;63.43
11523;BME280;40093;43.224;27.910;2022-10-23T06:14:44;100617.72;;;16.69;63.79
11523;BME280;40093;43.224;27.910;2022-10-23T06:17:11;100637.47;;;16.78;63.88
11523;BME280;40093;43.224;27.910;2022-10-23T06:19:38;100628.97;;;16.92;64.28
11523;BME280;40093;43.224;27.910;2022-10-23T06:22:07;100627.13;;;17.12;64.01
11523;BME280;40093;43.224;27.910;2022-10-23T06:24:34;100624.91;;;17.30;63.85
11523;BME280;40093;43.224;27.910;2022-10-23T06:27:01;100634.66;;;17.45;63.49
11523;BME280;40093;43.224;27.910;2022-10-23T06:29:29;100642.81;;;17.59;62.95
11523;BME280;40093;43.224;27.910;2022-10-23T06:31:56;100636.63;;;17.74;62.82
11523;BME280;40093;43.224;27.910;2022-10-23T06:34:23;100646.31;;;17.89;62.75
11523;BME280;40093;43.224;27.910;2022-10-23T06:36:50;100642.22;;;17.97;62.85
11523;BME280;40093;43.224;27.910;2022-10-23T06:39:17;100640.91;;;18.05;62.54
11523;BME280;40093;43.224;27.910;2022-10-23T06:41:45;100630.78;;;18.14;62.50
11523;BME280;40093;43.224;27.910;2022-10-23T06:44:12;100642.34;;;18.13;62.66
11523;BME280;40093;43.224;27.910;2022-10-23T06:46:40;100633.34;;;18.28;62.60
11523;BME280;40093;43.224;27.910;2022-10-23T06:49:12;100637.94;;;18.61;62.41
11523;BME280;40093;43.224;27.910;2022-10-23T06:51:39;100623.69;;;19.18;61.89
11523;BME280;40093;43.224;27.910;2022-10-23T06:54:06;100630.97;;;19.67;60.95
11523;BME280;40093;43.224;27.910;2022-10-23T06:56:33;100623.69;;;20.05;60.14
11523;BME280;40093;43.224;27.910;2022-10-23T06:59:00;100624.72;;;20.27;59.21
11523;BME280;40093;43.224;27.910;2022-10-23T07:01:27;100625.63;;;20.52;58.59
11523;BME280;40093;43.224;27.910;2022-10-23T07:03:56;100622.78;;;20.39;58.85
11523;BME280;40093;43.224;27.910;2022-10-23T07:06:22;100637.13;;;20.26;59.07
11523;BME280;40093;43.224;27.910;2022-10-23T07:08:49;100628.38;;;20.39;58.82
11523;BME280;40093;43.224;27.910;2022-10-23T07:11:16;100640.19;;;20.75;57.66
11523;BME280;40093;43.224;27.910;2022-10-23T07:13:43;100632.94;;;21.06;56.99
11523;BME280;40093;43.224;27.910;2022-10-23T07:16:12;100629.63;;;21.24;56.41
11523;BME280;40093;43.224;27.910;2022-10-23T07:18:39;100628.31;;;21.53;55.90
11523;BME280;40093;43.224;27.910;2022-10-23T07:21:08;100633.16;;;21.53;54.89
11523;BME280;40093;43.224;27.910;2022-10-23T07:23:38;100601.75;;;21.33;55.24
11523;BME280;40093;43.224;27.910;2022-10-23T07:26:07;100638.75;;;21.53;55.53
11523;BME280;40093;43.224;27.910;2022-10-23T07:28:34;100626.09;;;21.73;55.06
11523;BME280;40093;43.224;27.910;2022-10-23T07:31:01;100653.22;;;21.76;54.49
11523;BME280;40093;43.224;27.910;2022-10-23T07:33:28;100650.53;;;21.85;54.31
11523;BME280;40093;43.224;27.910;2022-10-23T07:35:55;100640.22;;;21.82;54.00
11523;BME280;40093;43.224;27.910;2022-10-23T07:38:23;100639.44;;;21.94;54.46
11523;BME280;40093;43.224;27.910;2022-10-23T07:40:50;100647.75;;;22.10;53.87
11523;BME280;40093;43.224;27.910;2022-10-23T07:43:18;100655.47;;;22.06;53.84
11523;BME280;40093;43.224;27.910;2022-10-23T07:45:46;100642.34;;;22.16;54.10
11523;BME280;40093;43.224;27.910;2022-10-23T07:48:14;100666.28;;;22.29;53.46
11523;BME280;40093;43.224;27.910;2022-10-23T07:50:41;100662.16;;;22.46;53.48
11523;BME280;40093;43.224;27.910;2022-10-23T07:53:13;100668.34;;;22.41;53.42
11523;BME280;40093;43.224;27.910;2022-10-23T07:55:50;100679.81;;;22.68;53.18
11523;BME280;40093;43.224;27.910;2022-10-23T07:58:17;100682.72;;;22.77;53.48
11523;BME280;40093;43.224;27.910;2022-10-23T08:00:45;100676.16;;;22.59;53.89
11523;BME280;40093;43.224;27.910;2022-10-23T08:03:17;100693.91;;;22.90;53.37
11523;BME280;40093;43.224;27.910;2022-10-23T08:05:44;100692.66;;;22.91;53.48
11523;BME280;40093;43.224;27.910;2022-10-23T08:08:11;100705.06;;;23.02;53.41
11523;BME280;40093;43.224;27.910;2022-10-23T08:10:38;100700.94;;;23.28;52.95
11523;BME280;40093;43.224;27.910;2022-10-23T08:13:09;100680.03;;;23.29;52.18
11523;BME280;40093;43.224;27.910;2022-10-23T08:15:37;100701.06;;;23.24;52.15
11523;BME280;40093;43.224;27.910;2022-10-23T08:18:03;100686.72;;;23.22;52.05
11523;BME280;40093;43.224;27.910;2022-10-23T08:20:30;100687.66;;;23.28;52.19
11523;BME280;40093;43.224;27.910;2022-10-23T08:22:58;100700.94;;;23.28;52.30
11523;BME280;40093;43.224;27.910;2022-10-23T08:25:25;100705.38;;;23.16;52.78
11523;BME280;40093;43.224;27.910;2022-10-23T08:27:52;100718.06;;;23.42;52.31
11523;BME280;40093;43.224;27.910;2022-10-23T08:30:20;100711.56;;;23.54;51.84
11523;BME280;40093;43.224;27.910;2022-10-23T08:32:47;100713.28;;;23.52;52.14
11523;BME280;40093;43.224;27.910;2022-10-23T08:35:14;100714.56;;;23.60;51.59
11523;BME280;40093;43.224;27.910;2022-10-23T08:37:41;100723.25;;;23.53;50.82
11523;BME280;40093;43.224;27.910;2022-10-23T08:40:13;100725.59;;;23.76;50.39
11523;BME280;40093;43.224;27.910;2022-10-23T08:42:42;100716.38;;;23.75;49.78
11523;BME280;40093;43.224;27.910;2022-10-23T08:45:25;100709.03;;;23.99;49.77
11523;BME280;40093;43.224;27.910;2022-10-23T08:47:57;100712.25;;;24.19;49.52
11523;BME280;40093;43.224;27.910;2022-10-23T08:50:29;100702.72;;;24.26;48.84
11523;BME280;40093;43.224;27.910;2022-10-23T08:53:00;100689.25;;;24.12;48.26
11523;BME280;40093;43.224;27.910;2022-10-23T08:55:30;100698.38;;;23.94;48.95
11523;BME280;40093;43.224;27.910;2022-10-23T08:58:02;100698.63;;;24.18;48.50
11523;BME280;40093;43.224;27.910;2022-10-23T09:00:32;100715.97;;;24.16;48.21
11523;BME280;40093;43.224;27.910;2022-10-23T09:03:01;100701.84;;;23.98;48.60
11523;BME280;40093;43.224;27.910;2022-10-23T09:05:30;100723.28;;;24.05;48.62
11523;BME280;40093;43.224;27.910;2022-10-23T09:08:06;100722.06;;;24.15;48.61
11523;BME280;40093;43.224;27.910;2022-10-23T09:10:50;100733.66;;;24.26;48.57
11523;BME280;40093;43.224;27.910;2022-10-23T09:13:41;100738.94;;;24.15;48.66
11523;BME280;40093;43.224;27.910;2022-10-23T09:16:21;100755.19;;;24.20;48.66
11523;BME280;40093;43.224;27.910;2022-10-23T09:18:55;100743.31;;;24.16;48.78
11523;BME280;40093;43.224;27.910;2022-10-23T09:21:25;100745.81;;;24.14;48.48
11523;BME280;40093;43.224;27.910;2022-10-23T09:23:53;100738.03;;;24.27;48.76
11523;BME280;40093;43.224;27.910;2022-10-23T09:26:20;100734.59;;;24.23;48.69
11523;BME280;40093;43.224;27.910;2022-10-23T09:28:48;100732.81;;;24.16;48.66
11523;BME280;40093;43.224;27.910;2022-10-23T09:31:18;100732.47;;;24.05;48.79
11523;BME280;40093;43.224;27.910;2022-10-23T09:33:55;100724.47;;;23.95;48.89
11523;BME280;40093;43.224;27.910;2022-10-23T09:36:23;100748.44;;;24.08;48.82
11523;BME280;40093;43.224;27.910;2022-10-23T09:38:56;100734.06;;;24.06;48.85
11523;BME280;40093;43.224;27.910;2022-10-23T09:41:27;100766.22;;;24.05;48.54
11523;BME280;40093;43.224;27.910;2022-10-23T09:44:06;100773.38;;;23.97;48.89
11523;BME280;40093;43.224;27.910;2022-10-23T09:46:45;100773.75;;;24.08;48.61
11523;BME280;40093;43.224;27.910;2022-10-23T09:49:17;100769.56;;;24.13;48.39
11523;BME280;40093;43.224;27.910;2022-10-23T09:51:55;100767.69;;;24.19;48.53
11523;BME280;40093;43.224;27.910;2022-10-23T09:54:25;100763.03;;;24.25;48.80
11523;BME280;40093;43.224;27.910;2022-10-23T09:56:54;100739.75;;;24.24;48.33
11523;BME280;40093;43.224;27.910;2022-10-23T09:59:27;100765.00;;;24.46;48.03
11523;BME280;40093;43.224;27.910;2022-10-23T10:01:57;100759.75;;;24.57;47.56
11523;BME280;40093;43.224;27.910;2022-10-23T10:04:33;100749.94;;;24.70;47.14
11523;BME280;40093;43.224;27.910;2022-10-23T10:07:01;100764.47;;;24.69;47.20
11523;BME280;40093;43.224;27.910;2022-10-23T10:09:29;100770.28;;;24.83;47.04
11523;BME280;40093;43.224;27.910;2022-10-23T10:12:01;100755.44;;;24.92;46.49
11523;BME280;40093;43.224;27.910;2022-10-23T10:14:47;100761.34;;;24.85;46.67
11523;BME280;40093;43.224;27.910;2022-10-23T10:17:28;100772.78;;;24.81;46.52
11523;BME280;40093;43.224;27.910;2022-10-23T10:20:05;100755.06;;;24.63;46.61
11523;BME280;40093;43.224;27.910;2022-10-23T10:22:40;100760.50;;;24.57;47.09
11523;BME280;40093;43.224;27.910;2022-10-23T10:25:11;100765.41;;;24.66;46.92
11523;BME280;40093;43.224;27.910;2022-10-23T10:27:46;100748.84;;;24.77;46.76
11523;BME280;40093;43.224;27.910;2022-10-23T10:30:18;100741.03;;;24.90;46.32
11523;BME280;40093;43.224;27.910;2022-10-23T10:32:52;100749.78;;;24.92;45.84
11523;BME280;40093;43.224;27.910;2022-10-23T10:35:36;100752.91;;;24.85;45.90
11523;BME280;40093;43.224;27.910;2022-10-23T10:38:24;100748.22;;;24.82;46.19
11523;BME280;40093;43.224;27.910;2022-10-23T10:41:19;100739.94;;;24.87;45.91
11523;BME280;40093;43.224;27.910;2022-10-23T10:43:59;100752.00;;;24.88;45.74
11523;BME280;40093;43.224;27.910;2022-10-23T10:46:35;100756.66;;;24.82;45.67
11523;BME280;40093;43.224;27.910;2022-10-23T10:49:14;100761.00;;;24.56;46.04
11523;BME280;40093;43.224;27.910;2022-10-23T10:51:49;100749.13;;;24.70;46.27
11523;BME280;40093;43.224;27.910;2022-10-23T10:54:32;100764.94;;;24.76;45.44
11523;BME280;40093;43.224;27.910;2022-10-23T10:57:11;100769.50;;;24.83;45.32
11523;BME280;40093;43.224;27.910;2022-10-23T10:59:41;100756.97;;;24.84;45.08
11523;BME280;40093;43.224;27.910;2022-10-23T11:02:22;100761.34;;;24.67;45.05
11523;BME280;40093;43.224;27.910;2022-10-23T11:04:58;100761.66;;;24.78;45.25
11523;BME280;40093;43.224;27.910;2022-10-23T11:07:31;100750.69;;;24.71;44.98
11523;BME280;40093;43.224;27.910;2022-10-23T11:10:03;100736.22;;;24.51;44.99
11523;BME280;40093;43.224;27.910;2022-10-23T11:12:39;100745.00;;;24.44;45.66
11523;BME280;40093;43.224;27.910;2022-10-23T11:15:11;100742.56;;;24.73;45.50
11523;BME280;40093;43.224;27.910;2022-10-23T11:17:41;100746.38;;;24.97;44.95
11523;BME280;40093;43.224;27.910;2022-10-23T11:20:21;100756.03;;;24.78;44.80
11523;BME280;40093;43.224;27.910;2022-10-23T11:22:57;100751.94;;;24.61;44.79
11523;BME280;40093;43.224;27.910;2022-10-23T11:25:45;100759.03;;;24.83;44.43
11523;BME280;40093;43.224;27.910;2022-10-23T11:28:22;100749.81;;;25.10;44.28
11523;BME280;40093;43.224;27.910;2022-10-23T11:31:04;100762.00;;;25.07;44.13
11523;BME280;40093;43.224;27.910;2022-10-23T11:33:50;100754.66;;;25.09;43.84
11523;BME280;40093;43.224;27.910;2022-10-23T11:36:37;100764.38;;;25.17;44.21
11523;BME280;40093;43.224;27.910;2022-10-23T11:39:14;100757.97;;;25.26;43.55
11523;BME280;40093;43.224;27.910;2022-10-23T11:41:49;100747.47;;;25.08;43.16
11523;BME280;40093;43.224;27.910;2022-10-23T11:44:26;100751.97;;;24.79;43.50
11523;BME280;40093;43.224;27.910;2022-10-23T11:47:01;100746.03;;;24.77;43.66
11523;BME280;40093;43.224;27.910;2022-10-23T11:49:28;100741.66;;;24.85;43.81
11523;BME280;40093;43.224;27.910;2022-10-23T11:52:01;100747.13;;;24.88;43.73
11523;BME280;40093;43.224;27.910;2022-10-23T11:54:28;100753.09;;;24.81;43.66
11523;BME280;40093;43.224;27.910;2022-10-23T11:57:08;100750.97;;;24.64;43.82
11523;BME280;40093;43.224;27.910;2022-10-23T11:59:49;100765.69;;;24.59;44.07
11523;BME280;40093;43.224;27.910;2022-10-23T12:02:22;100769.47;;;24.65;44.13
11523;BME280;40093;43.224;27.910;2022-10-23T12:04:52;100768.53;;;24.68;44.00
11523;BME280;40093;43.224;27.910;2022-10-23T12:07:23;100787.41;;;24.58;44.08
11523;BME280;40093;43.224;27.910;2022-10-23T12:09:55;100784.13;;;24.60;44.32
11523;BME280;40093;43.224;27.910;2022-10-23T12:12:30;100782.13;;;24.69;43.98
11523;BME280;40093;43.224;27.910;2022-10-23T12:15:17;100770.44;;;24.80;43.51
11523;BME280;40093;43.224;27.910;2022-10-23T12:17:45;100781.72;;;24.89;43.38
11523;BME280;40093;43.224;27.910;2022-10-23T12:20:25;100775.31;;;24.97;43.56
11523;BME280;40093;43.224;27.910;2022-10-23T12:23:14;100779.06;;;25.03;43.08
11523;BME280;40093;43.224;27.910;2022-10-23T12:25:54;100788.28;;;24.95;43.53
11523;BME280;40093;43.224;27.910;2022-10-23T12:28:31;100784.94;;;24.69;43.48
11523;BME280;40093;43.224;27.910;2022-10-23T12:31:10;100789.63;;;24.63;43.54
11523;BME280;40093;43.224;27.910;2022-10-23T12:33:45;100784.38;;;24.53;43.79
11523;BME280;40093;43.224;27.910;2022-10-23T12:36:25;100776.66;;;24.66;43.68
11523;BME280;40093;43.224;27.910;2022-10-23T12:38:58;100778.56;;;24.78;43.81
11523;BME280;40093;43.224;27.910;2022-10-23T12:41:26;100764.50;;;24.78;43.53
11523;BME280;40093;43.224;27.910;2022-10-23T12:43:56;100782.19;;;24.96;43.25
11523;BME280;40093;43.224;27.910;2022-10-23T12:46:32;100788.44;;;25.09;43.49
11523;BME280;40093;43.224;27.910;2022-10-23T12:49:01;100791.75;;;25.08;43.11
11523;BME280;40093;43.224;27.910;2022-10-23T12:51:31;100788.16;;;25.07;43.04
11523;BME280;40093;43.224;27.910;2022-10-23T12:54:00;100787.97;;;25.02;43.17
11523;BME280;40093;43.224;27.910;2022-10-23T12:56:34;100783.56;;;24.83;43.32
11523;BME280;40093;43.224;27.910;2022-10-23T12:59:09;100781.06;;;24.76;43.51